sensor_id;sensor_type;location;lat;lon;timestamp;P1;durP1;ratioP1;P2;durP2;ratioP2
33505;SDS011;19843;51.040;13.782;2022-08-19T00:01:22;3.80;;;3.70;;
33505;SDS011;19843;51.040;13.782;2022-08-19T00:03:55;3.80;;;3.70;;
33505;SDS011;19843;51.040;13.782;2022-08-19T00:06:23;3.97;;;3.78;;
33505;SDS011;19843;51.040;13.782;2022-08-19T00:08:52;3.60;;;3.50;;
33505;SDS011;19843;51.040;13.782;2022-08-19T00:11:19;3.30;;;3.20;;
33505;SDS011;19843;51.040;13.782;2022-08-19T00:13:51;2.85;;;2.75;;
33505;SDS011;19843;51.040;13.782;2022-08-19T00:16:19;3.88;;;3.78;;
33505;SDS011;19843;51.040;13.782;2022-08-19T00:18:51;5.07;;;4.88;;
33505;SDS011;19843;51.040;13.782;2022-08-19T00:21:19;6.05;;;5.75;;
33505;SDS011;19843;51.040;13.782;2022-08-19T00:23:47;5.10;;;4.90;;
33505;SDS011;19843;51.040;13.782;2022-08-19T00:26:16;5.53;;;5.32;;
33505;SDS011;19843;51.040;13.782;2022-08-19T00:28:43;5.78;;;5.57;;
33505;SDS011;19843;51.040;13.782;2022-08-19T00:31:11;5.72;;;5.53;;
33505;SDS011;19843;51.040;13.782;2022-08-19T00:33:38;5.50;;;5.30;;
33505;SDS011;19843;51.040;13.782;2022-08-19T00:36:06;4.90;;;4.70;;
33505;SDS011;19843;51.040;13.782;2022-08-19T00:38:36;3.20;;;3.00;;
33505;SDS011;19843;51.040;13.782;2022-08-19T00:41:31;1.80;;;1.70;;
33505;SDS011;19843;51.040;13.782;2022-08-19T00:44:00;3.70;;;3.50;;
33505;SDS011;19843;51.040;13.782;2022-08-19T00:46:29;4.07;;;3.88;;
33505;SDS011;19843;51.040;13.782;2022-08-19T00:48:58;4.60;;;4.47;;
33505;SDS011;19843;51.040;13.782;2022-08-19T00:51:27;7.78;;;7.47;;
33505;SDS011;19843;51.040;13.782;2022-08-19T00:53:58;8.30;;;8.00;;
33505;SDS011;19843;51.040;13.782;2022-08-19T00:56:28;8.07;;;7.78;;
33505;SDS011;19843;51.040;13.782;2022-08-19T00:58:58;8.88;;;8.57;;
33505;SDS011;19843;51.040;13.782;2022-08-19T01:01:26;8.48;;;8.18;;
33505;SDS011;19843;51.040;13.782;2022-08-19T01:03:57;7.10;;;6.80;;
33505;SDS011;19843;51.040;13.782;2022-08-19T01:06:25;7.72;;;7.45;;
33505;SDS011;19843;51.040;13.782;2022-08-19T01:08:54;7.93;;;7.63;;
33505;SDS011;19843;51.040;13.782;2022-08-19T01:11:22;10.23;;;9.82;;
33505;SDS011;19843;51.040;13.782;2022-08-19T01:13:50;9.77;;;9.43;;
33505;SDS011;19843;51.040;13.782;2022-08-19T01:16:22;8.00;;;7.65;;
33505;SDS011;19843;51.040;13.782;2022-08-19T01:18:52;4.15;;;3.88;;
33505;SDS011;19843;51.040;13.782;2022-08-19T01:21:21;3.80;;;3.70;;
33505;SDS011;19843;51.040;13.782;2022-08-19T01:23:54;2.58;;;2.47;;
33505;SDS011;19843;51.040;13.782;2022-08-19T01:26:23;1.90;;;1.80;;
33505;SDS011;19843;51.040;13.782;2022-08-19T01:28:55;2.75;;;2.65;;
33505;SDS011;19843;51.040;13.782;2022-08-19T01:31:26;2.78;;;2.58;;
33505;SDS011;19843;51.040;13.782;2022-08-19T01:33:58;2.30;;;2.10;;
33505;SDS011;19843;51.040;13.782;2022-08-19T01:36:27;2.38;;;2.28;;
33505;SDS011;19843;51.040;13.782;2022-08-19T01:38:58;3.50;;;3.40;;
33505;SDS011;19843;51.040;13.782;2022-08-19T01:41:26;3.33;;;3.22;;
33505;SDS011;19843;51.040;13.782;2022-08-19T01:43:54;2.50;;;2.40;;
33505;SDS011;19843;51.040;13.782;2022-08-19T01:46:42;1.73;;;1.70;;
33505;SDS011;19843;51.040;13.782;2022-08-19T01:49:10;2.25;;;2.15;;
33505;SDS011;19843;51.040;13.782;2022-08-19T01:51:38;2.50;;;2.40;;
33505;SDS011;19843;51.040;13.782;2022-08-19T01:54:07;2.80;;;2.70;;
33505;SDS011;19843;51.040;13.782;2022-08-19T01:56:35;2.10;;;2.00;;
33505;SDS011;19843;51.040;13.782;2022-08-19T01:59:03;2.08;;;1.98;;
33505;SDS011;19843;51.040;13.782;2022-08-19T02:01:35;1.42;;;1.42;;
33505;SDS011;19843;51.040;13.782;2022-08-19T02:04:02;1.38;;;1.38;;
33505;SDS011;19843;51.040;13.782;2022-08-19T02:06:31;2.60;;;2.50;;
33505;SDS011;19843;51.040;13.782;2022-08-19T02:08:59;5.53;;;5.22;;
33505;SDS011;19843;51.040;13.782;2022-08-19T02:11:29;7.63;;;7.38;;
33505;SDS011;19843;51.040;13.782;2022-08-19T02:13:59;3.33;;;3.22;;
33505;SDS011;19843;51.040;13.782;2022-08-19T02:16:28;5.75;;;5.45;;
33505;SDS011;19843;51.040;13.782;2022-08-19T02:18:56;6.25;;;6.03;;
33505;SDS011;19843;51.040;13.782;2022-08-19T02:21:26;3.50;;;3.40;;
33505;SDS011;19843;51.040;13.782;2022-08-19T02:23:56;3.10;;;3.00;;
33505;SDS011;19843;51.040;13.782;2022-08-19T02:26:23;2.80;;;2.70;;
33505;SDS011;19843;51.040;13.782;2022-08-19T02:28:53;1.73;;;1.63;;
33505;SDS011;19843;51.040;13.782;2022-08-19T02:31:23;4.05;;;2.20;;
33505;SDS011;19843;51.040;13.782;2022-08-19T02:33:51;3.08;;;2.97;;
33505;SDS011;19843;51.040;13.782;2022-08-19T02:36:22;7.05;;;6.78;;
33505;SDS011;19843;51.040;13.782;2022-08-19T02:38:50;9.95;;;9.60;;
33505;SDS011;19843;51.040;13.782;2022-08-19T02:41:21;9.00;;;8.60;;
33505;SDS011;19843;51.040;13.782;2022-08-19T02:43:53;4.07;;;3.88;;
33505;SDS011;19843;51.040;13.782;2022-08-19T02:46:42;2.33;;;2.22;;
33505;SDS011;19843;51.040;13.782;2022-08-19T02:49:11;2.28;;;2.17;;
33505;SDS011;19843;51.040;13.782;2022-08-19T02:51:43;2.63;;;2.53;;
33505;SDS011;19843;51.040;13.782;2022-08-19T02:54:12;4.20;;;4.03;;
33505;SDS011;19843;51.040;13.782;2022-08-19T02:56:41;4.57;;;4.47;;
33505;SDS011;19843;51.040;13.782;2022-08-19T02:59:11;1.90;;;1.80;;
33505;SDS011;19843;51.040;13.782;2022-08-19T03:01:39;1.70;;;1.70;;
33505;SDS011;19843;51.040;13.782;2022-08-19T03:04:09;3.15;;;3.05;;
33505;SDS011;19843;51.040;13.782;2022-08-19T03:06:39;4.05;;;3.85;;
33505;SDS011;19843;51.040;13.782;2022-08-19T03:09:09;2.85;;;2.75;;
33505;SDS011;19843;51.040;13.782;2022-08-19T03:11:36;2.60;;;2.50;;
33505;SDS011;19843;51.040;13.782;2022-08-19T03:14:05;3.08;;;2.97;;
33505;SDS011;19843;51.040;13.782;2022-08-19T03:16:40;2.08;;;1.98;;
33505;SDS011;19843;51.040;13.782;2022-08-19T03:19:10;2.30;;;2.20;;
33505;SDS011;19843;51.040;13.782;2022-08-19T03:21:38;10.82;;;10.32;;
33505;SDS011;19843;51.040;13.782;2022-08-19T03:24:07;12.57;;;12.07;;
33505;SDS011;19843;51.040;13.782;2022-08-19T03:26:38;22.52;;;21.67;;
33505;SDS011;19843;51.040;13.782;2022-08-19T03:29:06;29.40;;;28.20;;
33505;SDS011;19843;51.040;13.782;2022-08-19T03:31:38;26.38;;;25.35;;
33505;SDS011;19843;51.040;13.782;2022-08-19T03:34:19;15.10;;;14.50;;
33505;SDS011;19843;51.040;13.782;2022-08-19T03:36:48;13.73;;;13.23;;
33505;SDS011;19843;51.040;13.782;2022-08-19T03:39:16;24.17;;;23.10;;
33505;SDS011;19843;51.040;13.782;2022-08-19T03:41:44;13.63;;;13.13;;
33505;SDS011;19843;51.040;13.782;2022-08-19T03:44:14;1942.85;;;629.47;;
33505;SDS011;19843;51.040;13.782;2022-08-19T03:46:48;1999.90;;;999.90;;
33505;SDS011;19843;51.040;13.782;2022-08-19T03:49:18;1983.03;;;755.75;;
33505;SDS011;19843;51.040;13.782;2022-08-19T03:51:53;197.77;;;177.02;;
33505;SDS011;19843;51.040;13.782;2022-08-19T03:54:22;35.63;;;34.10;;
33505;SDS011;19843;51.040;13.782;2022-08-19T03:56:52;33.22;;;31.88;;
33505;SDS011;19843;51.040;13.782;2022-08-19T03:59:21;16.08;;;15.48;;
33505;SDS011;19843;51.040;13.782;2022-08-19T04:01:53;21.02;;;20.23;;
33505;SDS011;19843;51.040;13.782;2022-08-19T04:04:23;41.00;;;39.30;;
33505;SDS011;19843;51.040;13.782;2022-08-19T04:06:54;46.92;;;44.92;;
33505;SDS011;19843;51.040;13.782;2022-08-19T04:09:22;73.00;;;69.82;;
33505;SDS011;19843;51.040;13.782;2022-08-19T04:11:51;125.35;;;119.63;;
33505;SDS011;19843;51.040;13.782;2022-08-19T04:14:21;37.22;;;35.72;;
33505;SDS011;19843;51.040;13.782;2022-08-19T04:16:51;31.48;;;30.17;;
33505;SDS011;19843;51.040;13.782;2022-08-19T04:19:21;42.08;;;40.30;;
33505;SDS011;19843;51.040;13.782;2022-08-19T04:21:50;52.83;;;50.53;;
33505;SDS011;19843;51.040;13.782;2022-08-19T04:24:19;67.68;;;64.70;;
33505;SDS011;19843;51.040;13.782;2022-08-19T04:26:47;51.13;;;49.00;;
33505;SDS011;19843;51.040;13.782;2022-08-19T04:29:16;30.05;;;28.85;;
33505;SDS011;19843;51.040;13.782;2022-08-19T04:31:48;28.05;;;26.95;;
33505;SDS011;19843;51.040;13.782;2022-08-19T04:34:17;17.42;;;16.73;;
33505;SDS011;19843;51.040;13.782;2022-08-19T04:36:50;13.35;;;12.85;;
33505;SDS011;19843;51.040;13.782;2022-08-19T04:39:19;3.38;;;3.25;;
33505;SDS011;19843;51.040;13.782;2022-08-19T04:41:48;2.70;;;2.60;;
33505;SDS011;19843;51.040;13.782;2022-08-19T04:44:34;3.70;;;3.55;;
33505;SDS011;19843;51.040;13.782;2022-08-19T04:47:11;3.50;;;3.40;;
33505;SDS011;19843;51.040;13.782;2022-08-19T04:49:39;7.80;;;7.50;;
33505;SDS011;19843;51.040;13.782;2022-08-19T04:52:08;3.40;;;3.30;;
33505;SDS011;19843;51.040;13.782;2022-08-19T04:54:36;4.00;;;3.90;;
33505;SDS011;19843;51.040;13.782;2022-08-19T04:57:05;3.60;;;3.50;;
33505;SDS011;19843;51.040;13.782;2022-08-19T04:59:36;5.00;;;4.80;;
33505;SDS011;19843;51.040;13.782;2022-08-19T05:02:06;4.40;;;4.28;;
33505;SDS011;19843;51.040;13.782;2022-08-19T05:04:35;4.88;;;4.65;;
33505;SDS011;19843;51.040;13.782;2022-08-19T05:07:05;4.15;;;4.00;;
33505;SDS011;19843;51.040;13.782;2022-08-19T05:09:34;5.38;;;5.18;;
33505;SDS011;19843;51.040;13.782;2022-08-19T05:12:22;4.78;;;4.57;;
33505;SDS011;19843;51.040;13.782;2022-08-19T05:14:54;4.53;;;4.35;;
33505;SDS011;19843;51.040;13.782;2022-08-19T05:17:22;11.60;;;11.18;;
33505;SDS011;19843;51.040;13.782;2022-08-19T05:19:54;31.70;;;30.40;;
33505;SDS011;19843;51.040;13.782;2022-08-19T05:22:40;33.13;;;31.73;;
33505;SDS011;19843;51.040;13.782;2022-08-19T05:25:10;32.35;;;31.00;;
33505;SDS011;19843;51.040;13.782;2022-08-19T05:27:39;21.20;;;20.38;;
33505;SDS011;19843;51.040;13.782;2022-08-19T05:30:08;4.32;;;4.18;;
33505;SDS011;19843;51.040;13.782;2022-08-19T05:32:36;4.65;;;4.45;;
33505;SDS011;19843;51.040;13.782;2022-08-19T05:35:05;3.85;;;3.75;;
33505;SDS011;19843;51.040;13.782;2022-08-19T05:37:33;2.85;;;2.75;;
33505;SDS011;19843;51.040;13.782;2022-08-19T05:40:00;6.13;;;4.75;;
33505;SDS011;19843;51.040;13.782;2022-08-19T05:42:30;4.78;;;4.57;;
33505;SDS011;19843;51.040;13.782;2022-08-19T05:44:57;3.65;;;3.53;;
33505;SDS011;19843;51.040;13.782;2022-08-19T05:47:25;3.88;;;3.75;;
33505;SDS011;19843;51.040;13.782;2022-08-19T05:49:53;3.42;;;3.33;;
33505;SDS011;19843;51.040;13.782;2022-08-19T05:52:20;4.38;;;4.28;;
33505;SDS011;19843;51.040;13.782;2022-08-19T05:54:51;3.85;;;3.75;;
33505;SDS011;19843;51.040;13.782;2022-08-19T05:57:22;4.82;;;4.63;;
33505;SDS011;19843;51.040;13.782;2022-08-19T05:59:51;5.50;;;5.25;;
33505;SDS011;19843;51.040;13.782;2022-08-19T06:02:23;5.72;;;5.47;;
33505;SDS011;19843;51.040;13.782;2022-08-19T06:04:51;4.03;;;3.83;;
33505;SDS011;19843;51.040;13.782;2022-08-19T06:07:19;3.83;;;3.72;;
33505;SDS011;19843;51.040;13.782;2022-08-19T06:09:46;4.20;;;4.00;;
33505;SDS011;19843;51.040;13.782;2022-08-19T06:12:26;2.90;;;2.80;;
33505;SDS011;19843;51.040;13.782;2022-08-19T06:14:58;2.88;;;2.78;;
33505;SDS011;19843;51.040;13.782;2022-08-19T06:17:27;3.05;;;2.95;;
33505;SDS011;19843;51.040;13.782;2022-08-19T06:19:56;3.60;;;3.47;;
33505;SDS011;19843;51.040;13.782;2022-08-19T06:22:24;3.20;;;3.10;;
33505;SDS011;19843;51.040;13.782;2022-08-19T06:24:51;2.50;;;2.40;;
33505;SDS011;19843;51.040;13.782;2022-08-19T06:27:20;3.47;;;3.38;;
33505;SDS011;19843;51.040;13.782;2022-08-19T06:29:48;3.50;;;3.40;;
33505;SDS011;19843;51.040;13.782;2022-08-19T06:32:17;2.20;;;2.10;;
33505;SDS011;19843;51.040;13.782;2022-08-19T06:34:45;1.88;;;1.88;;
33505;SDS011;19843;51.040;13.782;2022-08-19T06:37:13;2.30;;;2.20;;
33505;SDS011;19843;51.040;13.782;2022-08-19T06:39:42;1.83;;;1.83;;
33505;SDS011;19843;51.040;13.782;2022-08-19T06:42:11;3.00;;;2.90;;
33505;SDS011;19843;51.040;13.782;2022-08-19T06:44:43;2.58;;;2.47;;
33505;SDS011;19843;51.040;13.782;2022-08-19T06:47:15;2.47;;;2.38;;
33505;SDS011;19843;51.040;13.782;2022-08-19T06:49:55;2.03;;;1.92;;
33505;SDS011;19843;51.040;13.782;2022-08-19T06:52:28;2.28;;;2.17;;
33505;SDS011;19843;51.040;13.782;2022-08-19T06:54:59;5.60;;;5.30;;
33505;SDS011;19843;51.040;13.782;2022-08-19T06:57:31;4.78;;;4.57;;
33505;SDS011;19843;51.040;13.782;2022-08-19T06:59:58;3.42;;;3.33;;
33505;SDS011;19843;51.040;13.782;2022-08-19T07:02:27;5.10;;;4.90;;
33505;SDS011;19843;51.040;13.782;2022-08-19T07:04:56;6.10;;;5.82;;
33505;SDS011;19843;51.040;13.782;2022-08-19T07:07:24;5.10;;;4.90;;
33505;SDS011;19843;51.040;13.782;2022-08-19T07:09:51;4.07;;;3.97;;
33505;SDS011;19843;51.040;13.782;2022-08-19T07:12:26;5.10;;;4.90;;
33505;SDS011;19843;51.040;13.782;2022-08-19T07:14:56;5.13;;;4.93;;
33505;SDS011;19843;51.040;13.782;2022-08-19T07:17:24;3.40;;;3.30;;
33505;SDS011;19843;51.040;13.782;2022-08-19T07:19:52;4.10;;;4.00;;
33505;SDS011;19843;51.040;13.782;2022-08-19T07:22:22;3.03;;;2.80;;
33505;SDS011;19843;51.040;13.782;2022-08-19T07:24:50;3.20;;;3.10;;
33505;SDS011;19843;51.040;13.782;2022-08-19T07:27:18;2.80;;;2.70;;
33505;SDS011;19843;51.040;13.782;2022-08-19T07:29:50;3.03;;;2.92;;
33505;SDS011;19843;51.040;13.782;2022-08-19T07:32:24;3.33;;;3.22;;
33505;SDS011;19843;51.040;13.782;2022-08-19T07:34:53;3.00;;;2.80;;
33505;SDS011;19843;51.040;13.782;2022-08-19T07:37:23;4.22;;;4.03;;
33505;SDS011;19843;51.040;13.782;2022-08-19T07:39:58;6.57;;;6.38;;
33505;SDS011;19843;51.040;13.782;2022-08-19T07:42:25;6.38;;;6.18;;
33505;SDS011;19843;51.040;13.782;2022-08-19T07:44:55;5.00;;;4.80;;
33505;SDS011;19843;51.040;13.782;2022-08-19T07:47:22;6.30;;;6.10;;
33505;SDS011;19843;51.040;13.782;2022-08-19T07:50:10;4.07;;;3.97;;
33505;SDS011;19843;51.040;13.782;2022-08-19T07:52:40;16.13;;;15.48;;
33505;SDS011;19843;51.040;13.782;2022-08-19T07:55:14;18.70;;;17.98;;
33505;SDS011;19843;51.040;13.782;2022-08-19T07:58:01;14.10;;;13.60;;
33505;SDS011;19843;51.040;13.782;2022-08-19T08:00:31;5.18;;;4.97;;
33505;SDS011;19843;51.040;13.782;2022-08-19T08:02:58;4.88;;;4.68;;
33505;SDS011;19843;51.040;13.782;2022-08-19T08:05:25;8.13;;;7.78;;
33505;SDS011;19843;51.040;13.782;2022-08-19T08:08:12;4.05;;;3.95;;
33505;SDS011;19843;51.040;13.782;2022-08-19T08:10:58;3.70;;;3.60;;
33505;SDS011;19843;51.040;13.782;2022-08-19T08:13:26;6.70;;;6.40;;
33505;SDS011;19843;51.040;13.782;2022-08-19T08:15:54;9.52;;;9.20;;
33505;SDS011;19843;51.040;13.782;2022-08-19T08:18:22;3.25;;;3.15;;
33505;SDS011;19843;51.040;13.782;2022-08-19T08:20:55;3.13;;;3.03;;
33505;SDS011;19843;51.040;13.782;2022-08-19T08:23:25;4.25;;;4.15;;
33505;SDS011;19843;51.040;13.782;2022-08-19T08:25:55;2.70;;;2.60;;
33505;SDS011;19843;51.040;13.782;2022-08-19T08:28:24;2.05;;;1.95;;
33505;SDS011;19843;51.040;13.782;2022-08-19T08:30:54;2.00;;;1.90;;
33505;SDS011;19843;51.040;13.782;2022-08-19T08:33:23;2.10;;;2.00;;
33505;SDS011;19843;51.040;13.782;2022-08-19T08:36:00;5.10;;;4.90;;
33505;SDS011;19843;51.040;13.782;2022-08-19T08:38:30;5.45;;;5.25;;
33505;SDS011;19843;51.040;13.782;2022-08-19T08:41:06;4.47;;;4.28;;
33505;SDS011;19843;51.040;13.782;2022-08-19T08:43:45;7.93;;;7.63;;
33505;SDS011;19843;51.040;13.782;2022-08-19T08:46:15;19.00;;;18.23;;
33505;SDS011;19843;51.040;13.782;2022-08-19T08:48:58;4.55;;;4.45;;
33505;SDS011;19843;51.040;13.782;2022-08-19T08:51:32;13.30;;;12.80;;
33505;SDS011;19843;51.040;13.782;2022-08-19T08:54:04;9.35;;;9.05;;
33505;SDS011;19843;51.040;13.782;2022-08-19T08:56:36;2.63;;;2.53;;
33505;SDS011;19843;51.040;13.782;2022-08-19T08:59:05;3.33;;;3.22;;
33505;SDS011;19843;51.040;13.782;2022-08-19T09:01:37;3.08;;;2.97;;
33505;SDS011;19843;51.040;13.782;2022-08-19T09:04:04;2.15;;;2.05;;
33505;SDS011;19843;51.040;13.782;2022-08-19T09:06:36;6.97;;;6.78;;
33505;SDS011;19843;51.040;13.782;2022-08-19T09:09:12;6.65;;;6.45;;
33505;SDS011;19843;51.040;13.782;2022-08-19T09:11:51;5.95;;;5.75;;
33505;SDS011;19843;51.040;13.782;2022-08-19T09:14:34;6.18;;;5.88;;
33505;SDS011;19843;51.040;13.782;2022-08-19T09:17:17;3.33;;;3.15;;
33505;SDS011;19843;51.040;13.782;2022-08-19T09:19:51;1.63;;;1.63;;
33505;SDS011;19843;51.040;13.782;2022-08-19T09:22:19;1.85;;;1.83;;
33505;SDS011;19843;51.040;13.782;2022-08-19T09:24:54;1.95;;;1.95;;
33505;SDS011;19843;51.040;13.782;2022-08-19T09:27:22;2.55;;;2.42;;
33505;SDS011;19843;51.040;13.782;2022-08-19T09:30:09;2.03;;;1.92;;
33505;SDS011;19843;51.040;13.782;2022-08-19T09:32:39;1.70;;;1.60;;
33505;SDS011;19843;51.040;13.782;2022-08-19T09:35:08;1.30;;;1.30;;
33505;SDS011;19843;51.040;13.782;2022-08-19T09:37:37;1.23;;;1.13;;
33505;SDS011;19843;51.040;13.782;2022-08-19T09:40:07;1.55;;;1.55;;
33505;SDS011;19843;51.040;13.782;2022-08-19T09:42:37;2.38;;;2.28;;
33505;SDS011;19843;51.040;13.782;2022-08-19T09:45:18;3.30;;;3.20;;
33505;SDS011;19843;51.040;13.782;2022-08-19T09:47:48;2.35;;;2.25;;
33505;SDS011;19843;51.040;13.782;2022-08-19T09:50:19;2.17;;;2.10;;
33505;SDS011;19843;51.040;13.782;2022-08-19T09:52:46;2.92;;;2.83;;
33505;SDS011;19843;51.040;13.782;2022-08-19T09:55:24;2.45;;;2.30;;
33505;SDS011;19843;51.040;13.782;2022-08-19T09:57:57;2.65;;;2.55;;
33505;SDS011;19843;51.040;13.782;2022-08-19T10:00:24;2.15;;;2.05;;
33505;SDS011;19843;51.040;13.782;2022-08-19T10:02:52;1.50;;;1.38;;
33505;SDS011;19843;51.040;13.782;2022-08-19T10:05:20;1.40;;;1.40;;
33505;SDS011;19843;51.040;13.782;2022-08-19T10:08:07;1.70;;;1.60;;
33505;SDS011;19843;51.040;13.782;2022-08-19T10:10:40;1.42;;;1.42;;
33505;SDS011;19843;51.040;13.782;2022-08-19T10:13:12;1.10;;;1.10;;
33505;SDS011;19843;51.040;13.782;2022-08-19T10:15:41;1.10;;;1.10;;
33505;SDS011;19843;51.040;13.782;2022-08-19T10:18:13;1.98;;;1.98;;
33505;SDS011;19843;51.040;13.782;2022-08-19T10:20:42;3.03;;;2.92;;
33505;SDS011;19843;51.040;13.782;2022-08-19T10:25:45;3.88;;;3.78;;
33505;SDS011;19843;51.040;13.782;2022-08-19T10:28:13;6.88;;;6.68;;
33505;SDS011;19843;51.040;13.782;2022-08-19T10:30:44;7.63;;;7.35;;
33505;SDS011;19843;51.040;13.782;2022-08-19T10:33:12;7.18;;;6.93;;
33505;SDS011;19843;51.040;13.782;2022-08-19T10:36:01;5.85;;;5.65;;
33505;SDS011;19843;51.040;13.782;2022-08-19T10:38:29;2.10;;;2.10;;
33505;SDS011;19843;51.040;13.782;2022-08-19T10:41:05;1.65;;;1.65;;
33505;SDS011;19843;51.040;13.782;2022-08-19T10:43:34;1.60;;;1.60;;
33505;SDS011;19843;51.040;13.782;2022-08-19T10:46:02;2.88;;;2.78;;
33505;SDS011;19843;51.040;13.782;2022-08-19T10:48:39;2.00;;;2.00;;
33505;SDS011;19843;51.040;13.782;2022-08-19T10:51:07;1.92;;;1.92;;
33505;SDS011;19843;51.040;13.782;2022-08-19T10:53:52;1.00;;;1.00;;
33505;SDS011;19843;51.040;13.782;2022-08-19T10:56:22;2.75;;;2.65;;
33505;SDS011;19843;51.040;13.782;2022-08-19T10:59:07;2.55;;;2.45;;
33505;SDS011;19843;51.040;13.782;2022-08-19T11:01:35;1.35;;;1.35;;
33505;SDS011;19843;51.040;13.782;2022-08-19T11:04:03;1.02;;;1.02;;
33505;SDS011;19843;51.040;13.782;2022-08-19T11:06:34;1.00;;;1.00;;
33505;SDS011;19843;51.040;13.782;2022-08-19T11:09:02;1.05;;;1.05;;
33505;SDS011;19843;51.040;13.782;2022-08-19T11:11:32;1.33;;;1.33;;
33505;SDS011;19843;51.040;13.782;2022-08-19T11:14:05;1.25;;;1.25;;
33505;SDS011;19843;51.040;13.782;2022-08-19T11:16:33;1.58;;;1.58;;
33505;SDS011;19843;51.040;13.782;2022-08-19T11:19:01;1.15;;;1.15;;
33505;SDS011;19843;51.040;13.782;2022-08-19T11:21:29;1.05;;;1.05;;
33505;SDS011;19843;51.040;13.782;2022-08-19T11:23:59;1.05;;;1.05;;
33505;SDS011;19843;51.040;13.782;2022-08-19T11:26:28;1.40;;;1.40;;
33505;SDS011;19843;51.040;13.782;2022-08-19T11:28:58;1.30;;;1.30;;
33505;SDS011;19843;51.040;13.782;2022-08-19T11:31:27;1.38;;;1.38;;
33505;SDS011;19843;51.040;13.782;2022-08-19T11:33:57;1.70;;;1.60;;
33505;SDS011;19843;51.040;13.782;2022-08-19T11:36:25;1.88;;;1.88;;
33505;SDS011;19843;51.040;13.782;2022-08-19T11:38:53;1.85;;;1.75;;
33505;SDS011;19843;51.040;13.782;2022-08-19T11:41:22;1.67;;;1.67;;
33505;SDS011;19843;51.040;13.782;2022-08-19T11:43:50;1.90;;;1.80;;
33505;SDS011;19843;51.040;13.782;2022-08-19T11:46:22;1.98;;;1.88;;
33505;SDS011;19843;51.040;13.782;2022-08-19T11:48:51;1.63;;;1.52;;
33505;SDS011;19843;51.040;13.782;2022-08-19T11:51:21;2.05;;;2.00;;
33505;SDS011;19843;51.040;13.782;2022-08-19T11:53:51;2.25;;;2.20;;
33505;SDS011;19843;51.040;13.782;2022-08-19T11:56:20;2.88;;;2.72;;
33505;SDS011;19843;51.040;13.782;2022-08-19T11:58:48;1.20;;;1.20;;
33505;SDS011;19843;51.040;13.782;2022-08-19T12:01:17;1.10;;;1.10;;
33505;SDS011;19843;51.040;13.782;2022-08-19T12:03:48;1.20;;;1.20;;
33505;SDS011;19843;51.040;13.782;2022-08-19T12:06:17;1.15;;;1.15;;
33505;SDS011;19843;51.040;13.782;2022-08-19T12:08:49;1.25;;;1.25;;
33505;SDS011;19843;51.040;13.782;2022-08-19T12:11:17;1.33;;;1.33;;
33505;SDS011;19843;51.040;13.782;2022-08-19T12:13:48;1.35;;;1.35;;
33505;SDS011;19843;51.040;13.782;2022-08-19T12:16:17;1.30;;;1.30;;
33505;SDS011;19843;51.040;13.782;2022-08-19T12:18:47;1.33;;;1.33;;
33505;SDS011;19843;51.040;13.782;2022-08-19T12:21:17;1.33;;;1.33;;
33505;SDS011;19843;51.040;13.782;2022-08-19T12:23:47;1.42;;;1.42;;
33505;SDS011;19843;51.040;13.782;2022-08-19T12:26:21;1.42;;;1.42;;
33505;SDS011;19843;51.040;13.782;2022-08-19T12:28:48;1.45;;;1.45;;
33505;SDS011;19843;51.040;13.782;2022-08-19T12:31:16;1.63;;;1.52;;
33505;SDS011;19843;51.040;13.782;2022-08-19T12:33:44;1.73;;;1.73;;
33505;SDS011;19843;51.040;13.782;2022-08-19T12:36:13;1.90;;;1.80;;
33505;SDS011;19843;51.040;13.782;2022-08-19T12:38:42;1.92;;;1.83;;
33505;SDS011;19843;51.040;13.782;2022-08-19T12:41:10;1.73;;;1.65;;
33505;SDS011;19843;51.040;13.782;2022-08-19T12:43:40;1.90;;;1.80;;
33505;SDS011;19843;51.040;13.782;2022-08-19T12:46:08;1.67;;;1.65;;
33505;SDS011;19843;51.040;13.782;2022-08-19T12:48:38;1.92;;;1.83;;
33505;SDS011;19843;51.040;13.782;2022-08-19T12:51:08;1.80;;;1.77;;
33505;SDS011;19843;51.040;13.782;2022-08-19T12:53:38;1.50;;;1.50;;
33505;SDS011;19843;51.040;13.782;2022-08-19T12:56:05;1.58;;;1.58;;
33505;SDS011;19843;51.040;13.782;2022-08-19T12:58:37;2.90;;;1.60;;
33505;SDS011;19843;51.040;13.782;2022-08-19T13:01:14;1.33;;;1.33;;
33505;SDS011;19843;51.040;13.782;2022-08-19T13:03:47;1.30;;;1.30;;
33505;SDS011;19843;51.040;13.782;2022-08-19T13:06:16;2.00;;;1.90;;
33505;SDS011;19843;51.040;13.782;2022-08-19T13:08:46;5.63;;;5.43;;
33505;SDS011;19843;51.040;13.782;2022-08-19T13:11:15;1.95;;;1.85;;
33505;SDS011;19843;51.040;13.782;2022-08-19T13:13:45;4.65;;;4.50;;
33505;SDS011;19843;51.040;13.782;2022-08-19T13:16:16;2.13;;;2.03;;
33505;SDS011;19843;51.040;13.782;2022-08-19T13:18:46;1.80;;;1.80;;
33505;SDS011;19843;51.040;13.782;2022-08-19T13:21:14;2.08;;;1.88;;
33505;SDS011;19843;51.040;13.782;2022-08-19T13:23:42;1.50;;;1.50;;
33505;SDS011;19843;51.040;13.782;2022-08-19T13:26:11;1.55;;;1.45;;
33505;SDS011;19843;51.040;13.782;2022-08-19T13:28:39;2.20;;;2.10;;
33505;SDS011;19843;51.040;13.782;2022-08-19T13:31:26;1.58;;;1.58;;
33505;SDS011;19843;51.040;13.782;2022-08-19T13:34:13;1.90;;;1.80;;
33505;SDS011;19843;51.040;13.782;2022-08-19T13:36:41;1.95;;;1.85;;
33505;SDS011;19843;51.040;13.782;2022-08-19T13:39:09;1.90;;;1.80;;
33505;SDS011;19843;51.040;13.782;2022-08-19T13:41:42;2.15;;;2.05;;
33505;SDS011;19843;51.040;13.782;2022-08-19T13:44:13;2.35;;;2.25;;
33505;SDS011;19843;51.040;13.782;2022-08-19T13:46:41;2.13;;;2.03;;
33505;SDS011;19843;51.040;13.782;2022-08-19T13:49:11;5.35;;;5.13;;
33505;SDS011;19843;51.040;13.782;2022-08-19T13:51:39;2.50;;;2.40;;
33505;SDS011;19843;51.040;13.782;2022-08-19T13:54:07;1.90;;;1.80;;
33505;SDS011;19843;51.040;13.782;2022-08-19T13:56:39;1.70;;;1.55;;
33505;SDS011;19843;51.040;13.782;2022-08-19T13:59:09;1.65;;;1.63;;
33505;SDS011;19843;51.040;13.782;2022-08-19T14:01:37;1.85;;;1.77;;
33505;SDS011;19843;51.040;13.782;2022-08-19T14:04:05;2.13;;;2.03;;
33505;SDS011;19843;51.040;13.782;2022-08-19T14:06:33;2.30;;;2.20;;
33505;SDS011;19843;51.040;13.782;2022-08-19T14:09:01;2.58;;;2.47;;
33505;SDS011;19843;51.040;13.782;2022-08-19T14:11:29;2.63;;;2.53;;
33505;SDS011;19843;51.040;13.782;2022-08-19T14:13:58;1.88;;;1.13;;
33505;SDS011;19843;51.040;13.782;2022-08-19T14:16:25;1.20;;;1.20;;
33505;SDS011;19843;51.040;13.782;2022-08-19T14:18:53;1.40;;;1.40;;
33505;SDS011;19843;51.040;13.782;2022-08-19T14:21:21;1.15;;;1.10;;
33505;SDS011;19843;51.040;13.782;2022-08-19T14:23:51;1.50;;;1.30;;
33505;SDS011;19843;51.040;13.782;2022-08-19T14:26:20;1.13;;;1.13;;
33505;SDS011;19843;51.040;13.782;2022-08-19T14:28:50;1.30;;;1.30;;
33505;SDS011;19843;51.040;13.782;2022-08-19T14:31:19;1.35;;;1.35;;
33505;SDS011;19843;51.040;13.782;2022-08-19T14:33:55;3.40;;;3.30;;
33505;SDS011;19843;51.040;13.782;2022-08-19T14:36:23;2.97;;;2.88;;
33505;SDS011;19843;51.040;13.782;2022-08-19T14:38:50;2.50;;;2.40;;
33505;SDS011;19843;51.040;13.782;2022-08-19T14:41:19;2.47;;;2.25;;
33505;SDS011;19843;51.040;13.782;2022-08-19T14:43:50;2.72;;;2.63;;
33505;SDS011;19843;51.040;13.782;2022-08-19T14:46:20;2.78;;;2.67;;
33505;SDS011;19843;51.040;13.782;2022-08-19T14:48:50;3.80;;;3.50;;
33505;SDS011;19843;51.040;13.782;2022-08-19T14:51:19;3.60;;;3.40;;
33505;SDS011;19843;51.040;13.782;2022-08-19T14:53:48;3.33;;;3.22;;